sensor_id;sensor_type;location;lat;lon;timestamp;temperature;humidity
70321;DHT22;61127;55.826;37.046;2023-04-29T00:01:55;6.82;77.27
70321;DHT22;61127;55.826;37.046;2023-04-29T00:04:26;6.85;77.41
70321;DHT22;61127;55.826;37.046;2023-04-29T00:06:53;6.83;77.49
70321;DHT22;61127;55.826;37.046;2023-04-29T00:09:20;6.84;77.03
70321;DHT22;61127;55.826;37.046;2023-04-29T00:11:47;6.81;77.53
70321;DHT22;61127;55.826;37.046;2023-04-29T00:14:14;6.82;77.61
70321;DHT22;61127;55.826;37.046;2023-04-29T00:16:41;6.83;77.60
70321;DHT22;61127;55.826;37.046;2023-04-29T00:19:07;6.85;77.77
70321;DHT22;61127;55.826;37.046;2023-04-29T00:21:33;6.84;77.35
70321;DHT22;61127;55.826;37.046;2023-04-29T00:23:59;6.83;77.38
70321;DHT22;61127;55.826;37.046;2023-04-29T00:26:25;6.82;77.60
70321;DHT22;61127;55.826;37.046;2023-04-29T00:28:51;6.83;77.47
70321;DHT22;61127;55.826;37.046;2023-04-29T00:31:17;6.80;77.14
70321;DHT22;61127;55.826;37.046;2023-04-29T00:33:43;6.76;77.42
70321;DHT22;61127;55.826;37.046;2023-04-29T00:36:10;6.79;77.47
70321;DHT22;61127;55.826;37.046;2023-04-29T00:38:36;6.76;77.56
70321;DHT22;61127;55.826;37.046;2023-04-29T00:41:03;6.74;77.11
70321;DHT22;61127;55.826;37.046;2023-04-29T00:43:29;6.72;77.11
70321;DHT22;61127;55.826;37.046;2023-04-29T00:45:55;6.70;77.54
70321;DHT22;61127;55.826;37.046;2023-04-29T00:48:22;6.70;77.62
70321;DHT22;61127;55.826;37.046;2023-04-29T00:50:48;6.69;77.60
70321;DHT22;61127;55.826;37.046;2023-04-29T00:53:15;6.66;77.40
70321;DHT22;61127;55.826;37.046;2023-04-29T00:55:43;6.64;77.27
70321;DHT22;61127;55.826;37.046;2023-04-29T00:58:12;6.65;77.47
70321;DHT22;61127;55.826;37.046;2023-04-29T01:00:38;6.65;77.64
70321;DHT22;61127;55.826;37.046;2023-04-29T01:03:04;6.68;77.60
70321;DHT22;61127;55.826;37.046;2023-04-29T01:05:31;6.71;77.42
70321;DHT22;61127;55.826;37.046;2023-04-29T01:10:34;6.72;77.05
70321;DHT22;61127;55.826;37.046;2023-04-29T01:13:13;6.73;76.92
70321;DHT22;61127;55.826;37.046;2023-04-29T01:15:53;6.72;76.52
70321;DHT22;61127;55.826;37.046;2023-04-29T01:18:38;6.69;76.41
70321;DHT22;61127;55.826;37.046;2023-04-29T01:21:06;6.68;76.22
70321;DHT22;61127;55.826;37.046;2023-04-29T01:23:32;6.71;76.12
70321;DHT22;61127;55.826;37.046;2023-04-29T01:25:59;6.73;76.02
70321;DHT22;61127;55.826;37.046;2023-04-29T01:31:27;6.73;75.67
70321;DHT22;61127;55.826;37.046;2023-04-29T01:34:09;6.74;75.56
70321;DHT22;61127;55.826;37.046;2023-04-29T01:36:47;6.75;75.51
70321;DHT22;61127;55.826;37.046;2023-04-29T01:44:34;6.69;75.50
70321;DHT22;61127;55.826;37.046;2023-04-29T01:47:01;6.72;75.54
70321;DHT22;61127;55.826;37.046;2023-04-29T01:49:35;6.72;75.31
70321;DHT22;61127;55.826;37.046;2023-04-29T01:52:02;6.72;75.26
70321;DHT22;61127;55.826;37.046;2023-04-29T01:54:29;6.71;75.26
70321;DHT22;61127;55.826;37.046;2023-04-29T01:56:57;6.69;75.24
70321;DHT22;61127;55.826;37.046;2023-04-29T01:59:28;6.68;75.21
70321;DHT22;61127;55.826;37.046;2023-04-29T02:02:07;6.68;75.11
70321;DHT22;61127;55.826;37.046;2023-04-29T02:04:36;6.68;75.25
70321;DHT22;61127;55.826;37.046;2023-04-29T02:07:03;6.68;75.29
70321;DHT22;61127;55.826;37.046;2023-04-29T02:09:29;6.70;75.28
70321;DHT22;61127;55.826;37.046;2023-04-29T02:12:04;6.68;75.12
70321;DHT22;61127;55.826;37.046;2023-04-29T02:14:30;6.70;75.00
70321;DHT22;61127;55.826;37.046;2023-04-29T02:16:59;6.64;74.76
70321;DHT22;61127;55.826;37.046;2023-04-29T02:19:26;6.64;74.79
70321;DHT22;61127;55.826;37.046;2023-04-29T02:21:54;6.61;74.82
70321;DHT22;61127;55.826;37.046;2023-04-29T02:24:20;6.65;74.95
70321;DHT22;61127;55.826;37.046;2023-04-29T02:26:47;6.66;74.95
70321;DHT22;61127;55.826;37.046;2023-04-29T02:29:13;6.71;74.93
70321;DHT22;61127;55.826;37.046;2023-04-29T02:31:39;6.74;74.76
70321;DHT22;61127;55.826;37.046;2023-04-29T02:34:06;6.76;74.66
70321;DHT22;61127;55.826;37.046;2023-04-29T02:36:33;6.76;74.50
70321;DHT22;61127;55.826;37.046;2023-04-29T02:38:59;6.73;74.41
70321;DHT22;61127;55.826;37.046;2023-04-29T02:41:25;6.73;74.35
70321;DHT22;61127;55.826;37.046;2023-04-29T02:43:51;6.74;74.35
70321;DHT22;61127;55.826;37.046;2023-04-29T02:46:17;6.72;74.23
70321;DHT22;61127;55.826;37.046;2023-04-29T02:48:44;6.70;74.09
70321;DHT22;61127;55.826;37.046;2023-04-29T02:51:11;6.65;73.93
70321;DHT22;61127;55.826;37.046;2023-04-29T02:53:37;6.58;73.73
70321;DHT22;61127;55.826;37.046;2023-04-29T02:56:03;6.53;73.82
70321;DHT22;61127;55.826;37.046;2023-04-29T02:58:31;6.52;73.67
70321;DHT22;61127;55.826;37.046;2023-04-29T03:00:57;6.48;73.73
70321;DHT22;61127;55.826;37.046;2023-04-29T03:03:23;6.41;73.79
70321;DHT22;61127;55.826;37.046;2023-04-29T03:05:50;6.41;74.04
70321;DHT22;61127;55.826;37.046;2023-04-29T03:08:16;6.46;74.47
70321;DHT22;61127;55.826;37.046;2023-04-29T03:10:42;6.49;74.34
70321;DHT22;61127;55.826;37.046;2023-04-29T03:13:08;6.51;74.22
70321;DHT22;61127;55.826;37.046;2023-04-29T03:15:35;6.54;74.08
70321;DHT22;61127;55.826;37.046;2023-04-29T03:18:02;6.56;73.93
70321;DHT22;61127;55.826;37.046;2023-04-29T03:20:29;6.58;73.79
70321;DHT22;61127;55.826;37.046;2023-04-29T03:23:01;6.65;73.73
70321;DHT22;61127;55.826;37.046;2023-04-29T03:25:27;6.69;73.64
70321;DHT22;61127;55.826;37.046;2023-04-29T03:27:53;6.73;73.51
70321;DHT22;61127;55.826;37.046;2023-04-29T03:30:20;6.79;73.40
70321;DHT22;61127;55.826;37.046;2023-04-29T03:32:50;6.81;73.09
70321;DHT22;61127;55.826;37.046;2023-04-29T03:35:16;6.85;73.10
70321;DHT22;61127;55.826;37.046;2023-04-29T03:38:02;6.89;73.18
70321;DHT22;61127;55.826;37.046;2023-04-29T03:40:31;6.98;72.98
70321;DHT22;61127;55.826;37.046;2023-04-29T03:42:58;7.03;72.91
70321;DHT22;61127;55.826;37.046;2023-04-29T03:45:25;7.10;72.89
70321;DHT22;61127;55.826;37.046;2023-04-29T03:47:51;7.15;72.78
70321;DHT22;61127;55.826;37.046;2023-04-29T03:50:20;7.20;72.64
70321;DHT22;61127;55.826;37.046;2023-04-29T03:52:47;7.26;72.44
70321;DHT22;61127;55.826;37.046;2023-04-29T03:55:15;7.31;72.29
70321;DHT22;61127;55.826;37.046;2023-04-29T03:57:43;7.37;72.12
70321;DHT22;61127;55.826;37.046;2023-04-29T04:00:10;7.46;71.73
70321;DHT22;61127;55.826;37.046;2023-04-29T04:02:42;7.52;71.35
70321;DHT22;61127;55.826;37.046;2023-04-29T04:05:09;7.53;71.38
70321;DHT22;61127;55.826;37.046;2023-04-29T04:07:36;7.60;71.51
70321;DHT22;61127;55.826;37.046;2023-04-29T04:10:21;7.69;71.30
70321;DHT22;61127;55.826;37.046;2023-04-29T04:12:47;7.76;71.00
70321;DHT22;61127;55.826;37.046;2023-04-29T04:15:14;7.90;71.23
70321;DHT22;61127;55.826;37.046;2023-04-29T04:17:42;7.98;70.28
70321;DHT22;61127;55.826;37.046;2023-04-29T04:20:08;8.04;70.22
70321;DHT22;61127;55.826;37.046;2023-04-29T04:22:35;8.14;70.49
70321;DHT22;61127;55.826;37.046;2023-04-29T04:25:23;8.26;70.39
70321;DHT22;61127;55.826;37.046;2023-04-29T04:27:52;8.33;69.93
70321;DHT22;61127;55.826;37.046;2023-04-29T04:30:45;8.41;69.71
70321;DHT22;61127;55.826;37.046;2023-04-29T04:33:11;8.48;69.40
70321;DHT22;61127;55.826;37.046;2023-04-29T04:35:39;8.41;68.19
70321;DHT22;61127;55.826;37.046;2023-04-29T04:38:05;8.42;69.03
70321;DHT22;61127;55.826;37.046;2023-04-29T04:40:31;8.49;69.26
70321;DHT22;61127;55.826;37.046;2023-04-29T04:43:16;8.59;69.04
70321;DHT22;61127;55.826;37.046;2023-04-29T04:45:42;8.67;68.68
70321;DHT22;61127;55.826;37.046;2023-04-29T04:48:08;8.71;68.31
70321;DHT22;61127;55.826;37.046;2023-04-29T04:50:37;8.78;68.54
70321;DHT22;61127;55.826;37.046;2023-04-29T04:53:04;8.87;68.61
70321;DHT22;61127;55.826;37.046;2023-04-29T04:55:43;8.94;68.17
70321;DHT22;61127;55.826;37.046;2023-04-29T04:58:09;9.01;68.21
70321;DHT22;61127;55.826;37.046;2023-04-29T05:00:37;9.08;67.81
70321;DHT22;61127;55.826;37.046;2023-04-29T05:03:03;9.15;68.01
70321;DHT22;61127;55.826;37.046;2023-04-29T05:05:32;9.21;67.49
70321;DHT22;61127;55.826;37.046;2023-04-29T05:07:58;9.31;67.68
70321;DHT22;61127;55.826;37.046;2023-04-29T05:10:31;9.37;67.06
70321;DHT22;61127;55.826;37.046;2023-04-29T05:13:01;9.41;66.64
70321;DHT22;61127;55.826;37.046;2023-04-29T05:15:27;9.51;66.27
70321;DHT22;61127;55.826;37.046;2023-04-29T05:17:58;9.52;65.56
70321;DHT22;61127;55.826;37.046;2023-04-29T05:20:24;9.59;64.57
70321;DHT22;61127;55.826;37.046;2023-04-29T05:22:50;9.68;66.17
70321;DHT22;61127;55.826;37.046;2023-04-29T05:25:17;9.79;66.14
70321;DHT22;61127;55.826;37.046;2023-04-29T05:27:43;9.82;65.37
70321;DHT22;61127;55.826;37.046;2023-04-29T05:30:14;9.82;65.62
70321;DHT22;61127;55.826;37.046;2023-04-29T05:32:40;9.96;65.64
70321;DHT22;61127;55.826;37.046;2023-04-29T05:35:12;10.04;64.61
70321;DHT22;61127;55.826;37.046;2023-04-29T05:37:38;10.04;64.52
70321;DHT22;61127;55.826;37.046;2023-04-29T05:40:17;10.00;64.90
70321;DHT22;61127;55.826;37.046;2023-04-29T05:42:45;10.01;64.61
70321;DHT22;61127;55.826;37.046;2023-04-29T05:45:12;10.07;64.79
70321;DHT22;61127;55.826;37.046;2023-04-29T05:47:38;10.10;64.88
70321;DHT22;61127;55.826;37.046;2023-04-29T05:50:04;10.19;65.09
70321;DHT22;61127;55.826;37.046;2023-04-29T05:52:31;10.39;65.11
70321;DHT22;61127;55.826;37.046;2023-04-29T05:54:57;10.38;64.25
70321;DHT22;61127;55.826;37.046;2023-04-29T05:57:23;10.57;64.43
70321;DHT22;61127;55.826;37.046;2023-04-29T05:59:50;10.77;64.19
70321;DHT22;61127;55.826;37.046;2023-04-29T06:02:16;10.93;64.05
70321;DHT22;61127;55.826;37.046;2023-04-29T06:04:42;11.04;63.10
70321;DHT22;61127;55.826;37.046;2023-04-29T06:07:29;10.96;63.58
70321;DHT22;61127;55.826;37.046;2023-04-29T06:10:19;11.12;62.44
70321;DHT22;61127;55.826;37.046;2023-04-29T06:12:46;11.20;62.20
70321;DHT22;61127;55.826;37.046;2023-04-29T06:15:13;11.16;62.64
70321;DHT22;61127;55.826;37.046;2023-04-29T06:17:40;11.20;62.64
70321;DHT22;61127;55.826;37.046;2023-04-29T06:20:06;11.26;61.73
70321;DHT22;61127;55.826;37.046;2023-04-29T06:22:33;11.34;62.29
70321;DHT22;61127;55.826;37.046;2023-04-29T06:25:00;11.46;61.25
70321;DHT22;61127;55.826;37.046;2023-04-29T06:27:44;11.48;60.93
70321;DHT22;61127;55.826;37.046;2023-04-29T06:30:10;11.39;60.99
70321;DHT22;61127;55.826;37.046;2023-04-29T06:32:38;11.58;61.35
70321;DHT22;61127;55.826;37.046;2023-04-29T06:35:06;11.62;60.60
70321;DHT22;61127;55.826;37.046;2023-04-29T06:38:02;11.49;60.22
70321;DHT22;61127;55.826;37.046;2023-04-29T06:40:31;11.33;59.59
70321;DHT22;61127;55.826;37.046;2023-04-29T06:43:06;11.34;60.20
70321;DHT22;61127;55.826;37.046;2023-04-29T06:45:49;11.46;60.07
70321;DHT22;61127;55.826;37.046;2023-04-29T06:48:20;11.59;60.98
70321;DHT22;61127;55.826;37.046;2023-04-29T06:50:52;11.69;60.64
70321;DHT22;61127;55.826;37.046;2023-04-29T06:53:18;11.69;60.05
70321;DHT22;61127;55.826;37.046;2023-04-29T06:55:44;11.88;60.43
70321;DHT22;61127;55.826;37.046;2023-04-29T06:58:12;12.61;57.06
70321;DHT22;61127;55.826;37.046;2023-04-29T07:00:39;0.00;58.51
70321;DHT22;61127;55.826;37.046;2023-04-29T07:03:05;13.43;52.24
70321;DHT22;61127;55.826;37.046;2023-04-29T07:05:34;13.24;55.88
70321;DHT22;61127;55.826;37.046;2023-04-29T07:08:01;13.54;57.19
70321;DHT22;61127;55.826;37.046;2023-04-29T07:10:27;13.88;57.44
70321;DHT22;61127;55.826;37.046;2023-04-29T07:12:54;13.98;56.43
70321;DHT22;61127;55.826;37.046;2023-04-29T07:15:20;14.18;55.17
70321;DHT22;61127;55.826;37.046;2023-04-29T07:17:47;14.39;55.55
70321;DHT22;61127;55.826;37.046;2023-04-29T07:20:13;14.29;56.26
70321;DHT22;61127;55.826;37.046;2023-04-29T07:22:40;14.12;55.17
70321;DHT22;61127;55.826;37.046;2023-04-29T07:25:06;13.98;54.71
70321;DHT22;61127;55.826;37.046;2023-04-29T07:27:33;13.92;55.07
70321;DHT22;61127;55.826;37.046;2023-04-29T07:30:00;14.05;55.23
70321;DHT22;61127;55.826;37.046;2023-04-29T07:32:30;14.47;53.95
70321;DHT22;61127;55.826;37.046;2023-04-29T07:34:58;0.00;0.00
70321;DHT22;61127;55.826;37.046;2023-04-29T07:37:24;0.00;0.00
70321;DHT22;61127;55.826;37.046;2023-04-29T07:39:51;0.00;0.00
70321;DHT22;61127;55.826;37.046;2023-04-29T07:42:17;0.00;0.00
70321;DHT22;61127;55.826;37.046;2023-04-29T07:44:43;0.00;0.00
70321;DHT22;61127;55.826;37.046;2023-04-29T07:47:12;0.00;0.00
70321;DHT22;61127;55.826;37.046;2023-04-29T07:49:40;0.00;0.00
70321;DHT22;61127;55.826;37.046;2023-04-29T07:52:07;0.00;0.00
70321;DHT22;61127;55.826;37.046;2023-04-29T07:54:37;0.00;0.00
70321;DHT22;61127;55.826;37.046;2023-04-29T07:57:04;0.00;0.00
70321;DHT22;61127;55.826;37.046;2023-04-29T07:59:30;0.00;0.00
70321;DHT22;61127;55.826;37.046;2023-04-29T08:01:57;0.00;0.00
70321;DHT22;61127;55.826;37.046;2023-04-29T08:04:24;0.00;0.00
70321;DHT22;61127;55.826;37.046;2023-04-29T08:07:04;0.00;0.00
70321;DHT22;61127;55.826;37.046;2023-04-29T08:09:30;0.00;0.00
70321;DHT22;61127;55.826;37.046;2023-04-29T08:11:58;0.00;0.00
70321;DHT22;61127;55.826;37.046;2023-04-29T08:14:23;0.00;0.00
70321;DHT22;61127;55.826;37.046;2023-04-29T08:16:51;0.00;0.00
70321;DHT22;61127;55.826;37.046;2023-04-29T08:19:17;0.00;0.00
70321;DHT22;61127;55.826;37.046;2023-04-29T08:21:43;0.00;0.00
70321;DHT22;61127;55.826;37.046;2023-04-29T08:24:08;0.00;0.00
70321;DHT22;61127;55.826;37.046;2023-04-29T08:26:35;0.00;0.00
70321;DHT22;61127;55.826;37.046;2023-04-29T08:29:01;0.00;0.00
70321;DHT22;61127;55.826;37.046;2023-04-29T08:31:30;0.00;0.00
70321;DHT22;61127;55.826;37.046;2023-04-29T08:33:56;0.00;0.00
70321;DHT22;61127;55.826;37.046;2023-04-29T08:36:23;0.00;0.00
70321;DHT22;61127;55.826;37.046;2023-04-29T08:38:50;0.00;0.00
70321;DHT22;61127;55.826;37.046;2023-04-29T08:41:17;0.00;0.00
70321;DHT22;61127;55.826;37.046;2023-04-29T08:43:43;0.00;0.00
70321;DHT22;61127;55.826;37.046;2023-04-29T08:46:10;25.17;30.08
70321;DHT22;61127;55.826;37.046;2023-04-29T08:48:37;25.88;29.41
70321;DHT22;61127;55.826;37.046;2023-04-29T08:51:05;26.28;18.70
70321;DHT22;61127;55.826;37.046;2023-04-29T08:53:31;26.37;27.41
70321;DHT22;61127;55.826;37.046;2023-04-29T08:56:07;27.29;22.29
70321;DHT22;61127;55.826;37.046;2023-04-29T08:58:35;27.11;22.59
70321;DHT22;61127;55.826;37.046;2023-04-29T09:01:10;24.64;21.42
70321;DHT22;61127;55.826;37.046;2023-04-29T09:07:25;0.00;0.00
70321;DHT22;61127;55.826;37.046;2023-04-29T09:09:55;0.00;0.00
70321;DHT22;61127;55.826;37.046;2023-04-29T09:12:23;0.00;24.88
70321;DHT22;61127;55.826;37.046;2023-04-29T09:14:49;26.69;21.34
70321;DHT22;61127;55.826;37.046;2023-04-29T09:17:16;27.65;21.34
70321;DHT22;61127;55.826;37.046;2023-04-29T09:19:43;0.00;0.00
70321;DHT22;61127;55.826;37.046;2023-04-29T09:22:10;29.81;25.78
70321;DHT22;61127;55.826;37.046;2023-04-29T09:24:39;0.00;13.74
70321;DHT22;61127;55.826;37.046;2023-04-29T09:27:06;30.63;11.79
70321;DHT22;61127;55.826;37.046;2023-04-29T09:29:33;30.84;18.49
70321;DHT22;61127;55.826;37.046;2023-04-29T09:32:17;30.55;13.78
70321;DHT22;61127;55.826;37.046;2023-04-29T09:34:45;30.82;18.66
70321;DHT22;61127;55.826;37.046;2023-04-29T09:37:31;31.44;7.89
70321;DHT22;61127;55.826;37.046;2023-04-29T09:39:57;31.53;9.76
70321;DHT22;61127;55.826;37.046;2023-04-29T09:42:23;31.24;16.09
70321;DHT22;61127;55.826;37.046;2023-04-29T09:44:50;32.28;15.97
70321;DHT22;61127;55.826;37.046;2023-04-29T09:47:28;30.52;15.43
70321;DHT22;61127;55.826;37.046;2023-04-29T09:50:10;30.53;13.45
70321;DHT22;61127;55.826;37.046;2023-04-29T09:52:39;29.56;13.52
70321;DHT22;61127;55.826;37.046;2023-04-29T09:55:14;30.01;14.17
70321;DHT22;61127;55.826;37.046;2023-04-29T09:57:41;28.24;16.83
70321;DHT22;61127;55.826;37.046;2023-04-29T10:00:08;26.95;18.15
70321;DHT22;61127;55.826;37.046;2023-04-29T10:02:45;26.56;15.55
70321;DHT22;61127;55.826;37.046;2023-04-29T10:05:17;25.73;17.86
70321;DHT22;61127;55.826;37.046;2023-04-29T10:07:46;24.74;19.10
70321;DHT22;61127;55.826;37.046;2023-04-29T10:10:13;24.28;22.59
70321;DHT22;61127;55.826;37.046;2023-04-29T10:12:40;27.60;19.41
70321;DHT22;61127;55.826;37.046;2023-04-29T10:15:25;28.99;15.08
70321;DHT22;61127;55.826;37.046;2023-04-29T10:18:19;27.50;15.90
70321;DHT22;61127;55.826;37.046;2023-04-29T10:20:47;25.83;18.45
70321;DHT22;61127;55.826;37.046;2023-04-29T10:23:16;24.91;18.25
70321;DHT22;61127;55.826;37.046;2023-04-29T10:25:45;26.39;17.09
70321;DHT22;61127;55.826;37.046;2023-04-29T10:28:14;26.12;16.16
70321;DHT22;61127;55.826;37.046;2023-04-29T10:30:49;25.57;18.15
70321;DHT22;61127;55.826;37.046;2023-04-29T10:33:17;26.19;15.54
70321;DHT22;61127;55.826;37.046;2023-04-29T10:35:44;24.75;17.83
70321;DHT22;61127;55.826;37.046;2023-04-29T10:38:19;24.56;18.57
70321;DHT22;61127;55.826;37.046;2023-04-29T10:40:48;24.47;18.48
70321;DHT22;61127;55.826;37.046;2023-04-29T10:43:22;24.05;18.96
70321;DHT22;61127;55.826;37.046;2023-04-29T10:45:49;24.92;22.97
70321;DHT22;61127;55.826;37.046;2023-04-29T10:48:15;28.44;19.80
70321;DHT22;61127;55.826;37.046;2023-04-29T10:53:14;33.49;16.57
70321;DHT22;61127;55.826;37.046;2023-04-29T10:55:41;32.94;14.11
70321;DHT22;61127;55.826;37.046;2023-04-29T10:58:36;31.52;10.75
70321;DHT22;61127;55.826;37.046;2023-04-29T11:01:03;32.34;12.43
70321;DHT22;61127;55.826;37.046;2023-04-29T11:14:29;34.33;6.80
70321;DHT22;61127;55.826;37.046;2023-04-29T11:16:58;32.37;7.00
70321;DHT22;61127;55.826;37.046;2023-04-29T11:19:35;30.75;8.74
70321;DHT22;61127;55.826;37.046;2023-04-29T11:25:02;26.33;12.65
70321;DHT22;61127;55.826;37.046;2023-04-29T11:27:35;27.40;15.67
70321;DHT22;61127;55.826;37.046;2023-04-29T11:30:03;29.62;10.62
70321;DHT22;61127;55.826;37.046;2023-04-29T11:32:38;27.61;12.40
70321;DHT22;61127;55.826;37.046;2023-04-29T11:35:15;26.07;14.96
70321;DHT22;61127;55.826;37.046;2023-04-29T11:37:46;25.20;15.26
70321;DHT22;61127;55.826;37.046;2023-04-29T11:40:13;24.51;16.98
70321;DHT22;61127;55.826;37.046;2023-04-29T11:42:49;25.82;19.08
70321;DHT22;61127;55.826;37.046;2023-04-29T11:45:16;26.40;15.93
70321;DHT22;61127;55.826;37.046;2023-04-29T11:47:44;26.58;15.80
70321;DHT22;61127;55.826;37.046;2023-04-29T11:50:11;30.21;16.41
70321;DHT22;61127;55.826;37.046;2023-04-29T11:52:40;33.47;13.92
70321;DHT22;61127;55.826;37.046;2023-04-29T11:55:10;35.34;10.01
70321;DHT22;61127;55.826;37.046;2023-04-29T11:57:37;37.49;10.14
70321;DHT22;61127;55.826;37.046;2023-04-29T12:00:10;39.18;8.43
70321;DHT22;61127;55.826;37.046;2023-04-29T12:02:37;39.86;5.01
70321;DHT22;61127;55.826;37.046;2023-04-29T12:05:07;40.31;6.31
70321;DHT22;61127;55.826;37.046;2023-04-29T12:07:38;40.95;6.93
70321;DHT22;61127;55.826;37.046;2023-04-29T12:10:08;41.99;7.52
70321;DHT22;61127;55.826;37.046;2023-04-29T12:12:36;43.21;8.30
70321;DHT22;61127;55.826;37.046;2023-04-29T12:15:06;44.15;2.53
70321;DHT22;61127;55.826;37.046;2023-04-29T12:17:33;44.64;6.50
70321;DHT22;61127;55.826;37.046;2023-04-29T12:19:59;45.14;6.79
70321;DHT22;61127;55.826;37.046;2023-04-29T12:22:31;45.49;9.19
70321;DHT22;61127;55.826;37.046;2023-04-29T12:24:58;45.51;6.93
70321;DHT22;61127;55.826;37.046;2023-04-29T12:27:24;46.02;3.97
70321;DHT22;61127;55.826;37.046;2023-04-29T12:29:51;46.34;2.48
70321;DHT22;61127;55.826;37.046;2023-04-29T12:32:21;46.21;4.01
70321;DHT22;61127;55.826;37.046;2023-04-29T12:34:49;46.10;3.22
70321;DHT22;61127;55.826;37.046;2023-04-29T12:37:16;44.13;1.55
70321;DHT22;61127;55.826;37.046;2023-04-29T12:39:42;0.00;3.93
70321;DHT22;61127;55.826;37.046;2023-04-29T12:42:14;42.36;2.58
70321;DHT22;61127;55.826;37.046;2023-04-29T12:44:44;43.16;4.81
70321;DHT22;61127;55.826;37.046;2023-04-29T12:47:12;39.78;4.51
70321;DHT22;61127;55.826;37.046;2023-04-29T12:49:45;36.12;3.74
70321;DHT22;61127;55.826;37.046;2023-04-29T12:52:14;33.20;6.92
70321;DHT22;61127;55.826;37.046;2023-04-29T12:54:40;30.74;8.53
70321;DHT22;61127;55.826;37.046;2023-04-29T12:57:09;28.70;9.97
70321;DHT22;61127;55.826;37.046;2023-04-29T12:59:36;27.07;11.06
70321;DHT22;61127;55.826;37.046;2023-04-29T13:02:02;25.75;12.27
70321;DHT22;61127;55.826;37.046;2023-04-29T13:04:28;24.70;13.23
70321;DHT22;61127;55.826;37.046;2023-04-29T13:06:54;24.73;15.32
70321;DHT22;61127;55.826;37.046;2023-04-29T13:09:25;29.54;12.97
70321;DHT22;61127;55.826;37.046;2023-04-29T13:11:52;32.83;10.41
70321;DHT22;61127;55.826;37.046;2023-04-29T13:14:19;35.11;9.31
70321;DHT22;61127;55.826;37.046;2023-04-29T13:16:51;36.13;8.80
70321;DHT22;61127;55.826;37.046;2023-04-29T13:19:18;0.00;0.00
70321;DHT22;61127;55.826;37.046;2023-04-29T13:21:44;0.00;0.00
70321;DHT22;61127;55.826;37.046;2023-04-29T13:24:11;0.00;6.87
70321;DHT22;61127;55.826;37.046;2023-04-29T13:26:37;40.59;5.22
70321;DHT22;61127;55.826;37.046;2023-04-29T13:29:04;41.13;5.68
70321;DHT22;61127;55.826;37.046;2023-04-29T13:31:30;41.34;6.18
70321;DHT22;61127;55.826;37.046;2023-04-29T13:33:57;41.19;1.35
70321;DHT22;61127;55.826;37.046;2023-04-29T13:36:23;40.42;3.80
70321;DHT22;61127;55.826;37.046;2023-04-29T13:38:53;40.31;4.58
70321;DHT22;61127;55.826;37.046;2023-04-29T13:41:19;40.07;3.35
70321;DHT22;61127;55.826;37.046;2023-04-29T13:43:45;39.55;4.48
70321;DHT22;61127;55.826;37.046;2023-04-29T13:46:12;37.91;4.25
70321;DHT22;61127;55.826;37.046;2023-04-29T13:48:37;0.00;1.63
70321;DHT22;61127;55.826;37.046;2023-04-29T13:51:04;32.83;7.08
70321;DHT22;61127;55.826;37.046;2023-04-29T13:53:30;31.27;8.48
70321;DHT22;61127;55.826;37.046;2023-04-29T13:55:56;30.12;8.66
70321;DHT22;61127;55.826;37.046;2023-04-29T13:58:22;29.23;10.03
70321;DHT22;61127;55.826;37.046;2023-04-29T14:00:48;28.29;10.33
70321;DHT22;61127;55.826;37.046;2023-04-29T14:03:15;27.08;9.71
70321;DHT22;61127;55.826;37.046;2023-04-29T14:05:43;25.53;11.04
70321;DHT22;61127;55.826;37.046;2023-04-29T14:08:10;24.32;11.52
70321;DHT22;61127;55.826;37.046;2023-04-29T14:10:36;23.59;13.09
70321;DHT22;61127;55.826;37.046;2023-04-29T14:13:02;23.23;13.80
70321;DHT22;61127;55.826;37.046;2023-04-29T14:15:28;23.05;14.23
70321;DHT22;61127;55.826;37.046;2023-04-29T14:17:54;22.88;14.26
70321;DHT22;61127;55.826;37.046;2023-04-29T14:20:20;22.56;13.86
70321;DHT22;61127;55.826;37.046;2023-04-29T14:22:46;22.12;14.41
70321;DHT22;61127;55.826;37.046;2023-04-29T14:25:12;21.65;14.53
70321;DHT22;61127;55.826;37.046;2023-04-29T14:27:38;21.15;15.14
70321;DHT22;61127;55.826;37.046;2023-04-29T14:30:05;20.66;15.50
70321;DHT22;61127;55.826;37.046;2023-04-29T14:32:31;20.17;15.87
70321;DHT22;61127;55.826;37.046;2023-04-29T14:34:58;19.74;16.67
70321;DHT22;61127;55.826;37.046;2023-04-29T14:37:25;19.36;17.45
70321;DHT22;61127;55.826;37.046;2023-04-29T14:39:51;18.99;18.48
70321;DHT22;61127;55.826;37.046;2023-04-29T14:42:18;18.68;18.11
70321;DHT22;61127;55.826;37.046;2023-04-29T14:44:44;18.42;19.20
70321;DHT22;61127;55.826;37.046;2023-04-29T14:47:10;18.15;18.84
70321;DHT22;61127;55.826;37.046;2023-04-29T14:49:37;17.90;19.10
70321;DHT22;61127;55.826;37.046;2023-04-29T14:52:03;17.76;19.20
70321;DHT22;61127;55.826;37.046;2023-04-29T14:54:29;17.64;19.55
70321;DHT22;61127;55.826;37.046;2023-04-29T14:56:55;17.53;19.18
70321;DHT22;61127;55.826;37.046;2023-04-29T14:59:24;17.37;19.66
70321;DHT22;61127;55.826;37.046;2023-04-29T15:01:51;17.15;20.21
70321;DHT22;61127;55.826;37.046;2023-04-29T15:04:17;16.96;20.23
70321;DHT22;61127;55.826;37.046;2023-04-29T15:06:43;16.80;20.76
70321;DHT22;61127;55.826;37.046;2023-04-29T15:09:31;16.64;21.36
70321;DHT22;61127;55.826;37.046;2023-04-29T15:11:58;16.52;20.95
70321;DHT22;61127;55.826;37.046;2023-04-29T15:14:23;16.40;21.47
70321;DHT22;61127;55.826;37.046;2023-04-29T15:20:43;16.02;22.34
70321;DHT22;61127;55.826;37.046;2023-04-29T15:23:09;15.88;21.51
70321;DHT22;61127;55.826;37.046;2023-04-29T15:25:35;15.83;22.45
70321;DHT22;61127;55.826;37.046;2023-04-29T15:28:03;15.86;22.40
70321;DHT22;61127;55.826;37.046;2023-04-29T15:30:30;15.93;22.84
70321;DHT22;61127;55.826;37.046;2023-04-29T15:32:57;15.98;23.22
70321;DHT22;61127;55.826;37.046;2023-04-29T15:35:23;16.01;23.31
70321;DHT22;61127;55.826;37.046;2023-04-29T15:37:49;16.01;23.50
70321;DHT22;61127;55.826;37.046;2023-04-29T15:40:15;16.00;23.53
70321;DHT22;61127;55.826;37.046;2023-04-29T15:42:42;15.97;23.25
70321;DHT22;61127;55.826;37.046;2023-04-29T15:45:08;15.92;23.43
70321;DHT22;61127;55.826;37.046;2023-04-29T15:47:35;15.86;22.84
70321;DHT22;61127;55.826;37.046;2023-04-29T15:50:01;15.78;23.09
70321;DHT22;61127;55.826;37.046;2023-04-29T15:52:28;15.68;23.58
70321;DHT22;61127;55.826;37.046;2023-04-29T15:54:55;15.53;24.14
70321;DHT22;61127;55.826;37.046;2023-04-29T15:57:21;15.33;24.22
70321;DHT22;61127;55.826;37.046;2023-04-29T15:59:47;15.16;24.01
70321;DHT22;61127;55.826;37.046;2023-04-29T16:02:14;14.97;24.11
70321;DHT22;61127;55.826;37.046;2023-04-29T16:04:40;14.77;24.11
70321;DHT22;61127;55.826;37.046;2023-04-29T16:07:06;14.59;24.72
70321;DHT22;61127;55.826;37.046;2023-04-29T16:09:32;14.43;25.30